Time;durP1;ratioP1;P1;durP2;ratioP2;P2;SDS_P1;SDS_P2;PMS_P1;PMS_P2;Temp;Humidity;BMP_temperature;BMP_pressure;BME280_temperature;BME280_humidity;BME280_pressure;Samples;Min_cycle;Max_cycle;Signal;HPM_P1;HPM_P2
2021/03/07 00:02:03;;;;;;;4.68;2.15;;;;;;;5.61;48.42;101070.94;5014403;28;20058;-85
2021/03/07 00:04:29;;;;;;;5.32;2.50;;;;;;;5.59;48.59;101064.91;5019742;28;20389;-86
2021/03/07 00:06:56;;;;;;;3.67;1.77;;;;;;;5.58;48.39;101060.53;5035361;28;20056;-86
2021/03/07 00:09:22;;;;;;;3.78;1.85;;;;;;;5.57;48.37;101060.59;5034930;28;20050;-86
2021/03/07 00:11:48;;;;;;;5.90;2.45;;;;;;;5.55;48.66;101058.00;5035206;28;20060;-86
2021/03/07 00:14:14;;;;;;;3.67;2.35;;;;;;;5.53;48.64;101058.91;5029640;28;20049;-84
2021/03/07 00:16:40;;;;;;;5.40;2.42;;;;;;;5.53;48.97;101064.13;5014946;28;20137;-85
2021/03/07 00:19:07;;;;;;;4.38;2.15;;;;;;;5.52;49.18;101058.03;5013823;28;20054;-85
2021/03/07 00:21:34;;;;;;;6.28;2.40;;;;;;;5.50;48.71;101056.31;5015447;28;20061;-85
2021/03/07 00:24:00;;;;;;;4.22;2.42;;;;;;;5.47;48.78;101054.63;5015735;28;20066;-85
2021/03/07 00:26:26;;;;;;;4.63;2.78;;;;;;;5.45;48.99;101057.25;5032970;28;20056;-85
2021/03/07 00:28:52;;;;;;;6.25;2.95;;;;;;;5.44;49.12;101052.06;5033964;28;20083;-84
2021/03/07 00:31:18;;;;;;;4.90;2.60;;;;;;;5.41;48.98;101052.97;5033618;28;20076;-85
2021/03/07 00:33:44;;;;;;;6.28;3.03;;;;;;;5.40;49.02;101056.47;5034195;28;20136;-85
2021/03/07 00:36:10;;;;;;;6.78;2.58;;;;;;;5.38;48.88;101057.38;5014720;28;20527;-85
2021/03/07 00:38:37;;;;;;;9.80;3.33;;;;;;;5.35;49.02;101059.13;5027691;28;20053;-85
2021/03/07 00:41:03;;;;;;;6.30;2.75;;;;;;;5.33;49.16;101060.03;5034237;28;20522;-86
2021/03/07 00:43:29;;;;;;;7.32;3.22;;;;;;;5.30;49.13;101063.56;5033423;28;20049;-86
2021/03/07 00:45:55;;;;;;;4.47;3.00;;;;;;;5.28;49.23;101057.50;5015587;28;20050;-85
2021/03/07 00:48:21;;;;;;;6.93;2.28;;;;;;;5.26;49.18;101059.25;5014694;28;20056;-85
2021/03/07 00:50:48;;;;;;;5.68;2.78;;;;;;;5.23;49.48;101061.91;5014576;28;20164;-85
2021/03/07 00:53:14;;;;;;;4.90;2.78;;;;;;;5.21;49.33;101056.69;5014706;28;20121;-85
2021/03/07 00:55:40;;;;;;;5.70;2.88;;;;;;;5.19;49.48;101065.44;5025944;28;20056;-85
2021/03/07 00:58:06;;;;;;;5.53;2.45;;;;;;;5.16;49.67;101052.44;5033431;28;20049;-85
2021/03/07 01:00:32;;;;;;;6.55;3.13;;;;;;;5.14;49.62;101055.06;5033419;28;20056;-86
2021/03/07 01:03:01;;;;;;;8.50;2.55;;;;;;;5.11;49.55;101059.44;5034140;28;20049;-85
2021/03/07 01:05:31;;;;;;;5.68;2.63;;;;;;;5.07;50.23;101054.28;5030086;28;20055;-86
2021/03/07 01:07:57;;;;;;;3.95;2.38;;;;;;;5.06;49.58;101052.56;5034383;28;20407;-86
2021/03/07 01:10:33;;;;;;;4.68;2.33;;;;;;;5.00;50.82;101050.03;5033008;28;20057;-86
2021/03/07 01:13:00;;;;;;;6.78;2.45;;;;;;;5.00;49.39;101047.41;5032689;28;20053;-86
2021/03/07 01:15:30;;;;;;;3.20;2.20;;;;;;;4.95;50.53;101041.41;5020008;28;20069;-86
2021/03/07 01:17:57;;;;;;;5.30;1.98;;;;;;;4.92;49.85;101038.81;5014353;28;20058;-86
2021/03/07 01:20:24;;;;;;;3.65;2.40;;;;;;;4.90;49.84;101038.00;5012517;28;20136;-86
2021/03/07 01:22:56;;;;;;;5.63;2.20;;;;;;;4.85;50.08;101043.25;5013916;28;20492;-86
2021/03/07 01:25:26;;;;;;;3.90;1.85;;;;;;;4.83;50.18;101034.59;5024440;28;20041;-86
2021/03/07 01:27:53;;;;;;;3.65;2.30;;;;;;;4.80;50.03;101039.84;5032975;28;20061;-86
2021/03/07 01:30:22;;;;;;;4.68;1.80;;;;;;;4.77;49.83;101029.44;5032493;28;20060;-84
2021/03/07 01:32:48;;;;;;;4.13;1.85;;;;;;;4.75;49.89;101033.81;5033975;28;20056;-84
2021/03/07 01:35:15;;;;;;;2.85;2.03;;;;;;;4.72;49.71;101033.84;5025896;28;20042;-85
2021/03/07 01:37:41;;;;;;;4.25;2.03;;;;;;;4.69;49.85;101030.41;5029602;28;20128;-85
2021/03/07 01:40:14;;;;;;;3.10;1.50;;;;;;;4.67;50.20;101026.06;5013991;28;20046;-85
2021/03/07 01:43:00;;;;;;;2.47;1.73;;;;;;;4.62;50.89;101020.06;5013661;28;20527;-85
2021/03/07 01:45:28;;;;;;;5.55;1.88;;;;;;;4.62;50.27;101015.72;5016146;28;20122;-85
2021/03/07 01:47:57;;;;;;;4.38;2.30;;;;;;;4.61;50.47;101005.28;5012727;28;20398;-85
2021/03/07 01:50:26;;;;;;;3.22;1.80;;;;;;;4.59;50.29;101004.47;5013836;28;20050;-85
2021/03/07 01:52:53;;;;;;;5.70;1.90;;;;;;;4.58;50.04;100998.38;5012338;28;20049;-85
2021/03/07 01:55:24;;;;;;;6.10;2.30;;;;;;;4.55;50.96;100994.06;5022444;28;20558;-85
2021/03/07 01:57:57;;;;;;;7.28;1.77;;;;;;;4.53;50.93;100993.19;5032453;28;20065;-85
2021/03/07 02:00:24;;;;;;;6.25;2.03;;;;;;;4.53;50.57;100985.38;5032461;28;20050;-85
2021/03/07 02:02:50;;;;;;;4.10;1.90;;;;;;;4.53;50.43;100981.94;5027753;28;20516;-84
2021/03/07 02:05:19;;;;;;;4.40;1.92;;;;;;;4.52;50.86;100975.00;5012575;28;20088;-85
2021/03/07 02:07:47;;;;;;;7.15;2.17;;;;;;;4.52;50.66;100975.84;5012698;28;20054;-84
2021/03/07 02:10:22;;;;;;;5.18;1.92;;;;;;;4.51;51.69;100975.84;5012546;28;20046;-85
2021/03/07 02:12:50;;;;;;;6.20;2.25;;;;;;;4.51;50.56;100961.06;5013626;28;20061;-85
2021/03/07 02:15:17;;;;;;;6.93;2.25;;;;;;;4.51;50.70;100961.06;5031236;28;20053;-84
2021/03/07 02:17:45;;;;;;;4.25;1.80;;;;;;;4.52;50.71;100954.13;5032062;28;20057;-85
2021/03/07 02:20:13;;;;;;;6.60;2.28;;;;;;;4.53;50.74;100959.31;5033401;28;20093;-84
2021/03/07 02:22:44;;;;;;;4.40;1.80;;;;;;;4.53;51.52;100955.84;5031159;28;20053;-85
2021/03/07 02:25:13;;;;;;;4.07;1.85;;;;;;;4.55;51.28;100948.84;5013440;28;20053;-85
2021/03/07 02:27:39;;;;;;;4.53;1.88;;;;;;;4.56;50.97;100946.22;5013777;28;20061;-85
2021/03/07 02:30:09;;;;;;;3.35;1.67;;;;;;;4.57;51.47;100945.34;5013493;28;20495;-85
2021/03/07 02:32:38;;;;;;;7.63;1.92;;;;;;;4.59;51.10;100937.50;5015952;28;20046;-84
2021/03/07 02:35:11;;;;;;;6.63;2.08;;;;;;;4.60;51.29;100940.97;5032915;28;20041;-84
2021/03/07 02:37:40;;;;;;;3.93;1.93;;;;;;;4.60;50.99;100936.63;5035795;28;20056;-85
2021/03/07 02:40:11;;;;;;;4.53;1.67;;;;;;;4.59;51.41;100931.44;5037019;28;20053;-85
2021/03/07 02:42:41;;;;;;;6.40;2.75;;;;;;;4.59;50.97;100923.63;5036415;28;20046;-85
2021/03/07 02:45:10;;;;;;;4.30;1.83;;;;;;;4.58;50.80;100920.13;5015602;28;20049;-84
2021/03/07 02:47:39;;;;;;;3.63;1.80;;;;;;;4.56;50.99;100912.34;5031528;28;20053;-84
2021/03/07 02:50:11;;;;;;;8.60;1.95;;;;;;;4.55;51.78;100913.22;5036726;28;20046;-86
2021/03/07 02:52:38;;;;;;;6.32;1.88;;;;;;;4.55;51.17;100913.22;5035182;28;20080;-85
2021/03/07 02:55:07;;;;;;;3.72;2.10;;;;;;;4.54;51.35;100913.22;5014558;28;20385;-84
2021/03/07 02:57:35;;;;;;;5.38;2.10;;;;;;;4.52;51.15;100910.66;5016620;28;20041;-84
2021/03/07 03:00:06;;;;;;;4.78;2.00;;;;;;;4.51;51.54;100895.00;5015116;28;20060;-85
2021/03/07 03:02:32;;;;;;;5.10;2.25;;;;;;;4.51;50.94;100897.63;5014340;28;20514;-84
2021/03/07 03:05:00;;;;;;;9.65;2.17;;;;;;;4.50;51.41;100901.13;5028235;28;20080;-84
2021/03/07 03:07:28;;;;;;;3.88;1.83;;;;;;;4.48;51.53;100897.69;5036361;28;20058;-84
2021/03/07 03:09:55;;;;;;;2.90;1.85;;;;;;;4.47;51.25;100891.59;5035259;28;20072;-84
2021/03/07 03:12:28;;;;;;;8.98;2.03;;;;;;;4.45;51.74;100882.91;5035183;28;20457;-85
2021/03/07 03:14:55;;;;;;;4.13;1.65;;;;;;;4.44;51.62;100881.19;5033730;28;20507;-84
2021/03/07 03:17:24;;;;;;;5.15;2.05;;;;;;;4.42;51.99;100881.22;5035840;28;20052;-84
2021/03/07 03:19:52;;;;;;;4.18;1.77;;;;;;;4.42;51.47;100880.38;5035915;28;20049;-85
2021/03/07 03:22:19;;;;;;;4.72;2.10;;;;;;;4.40;51.35;100882.13;5034785;28;20049;-85
2021/03/07 03:24:45;;;;;;;5.65;1.73;;;;;;;4.37;51.56;100880.41;5035139;28;20048;-84
2021/03/07 03:27:13;;;;;;;7.88;2.55;;;;;;;4.36;51.50;100876.09;5030741;28;20056;-84
2021/03/07 03:29:41;;;;;;;5.07;2.50;;;;;;;4.34;51.56;100870.03;5035904;28;20057;-84
2021/03/07 03:32:09;;;;;;;3.40;1.80;;;;;;;4.33;51.90;100868.31;5034900;28;20064;-84
2021/03/07 03:34:37;;;;;;;4.70;1.90;;;;;;;4.32;51.56;100871.81;5034118;28;20045;-84
2021/03/07 03:37:04;;;;;;;4.10;2.10;;;;;;;4.29;51.92;100870.09;5034879;28;20396;-85
2021/03/07 03:39:31;;;;;;;5.15;2.35;;;;;;;4.28;51.83;100870.13;5028784;28;20443;-85
2021/03/07 03:42:01;;;;;;;3.42;2.20;;;;;;;4.25;52.25;100863.19;5016224;28;20077;-85
2021/03/07 03:44:32;;;;;;;4.22;1.98;;;;;;;4.24;52.62;100866.69;5014005;28;20408;-85
2021/03/07 03:46:59;;;;;;;4.88;2.03;;;;;;;4.22;51.83;100860.63;5015994;28;20057;-84
2021/03/07 03:49:31;;;;;;;6.72;2.00;;;;;;;4.22;52.91;100862.38;5015016;28;20060;-84
2021/03/07 03:52:08;;;;;;;10.32;1.77;;;;;;;4.16;53.40;100858.94;5015613;28;20500;-84
2021/03/07 03:54:41;;;;;;;7.40;2.15;;;;;;;4.16;52.69;100860.72;5015558;28;20046;-86
2021/03/07 03:57:09;;;;;;;3.97;2.38;;;;;;;4.15;52.50;100862.44;5014364;28;20069;-85
2021/03/07 03:59:38;;;;;;;7.15;2.22;;;;;;;4.11;52.89;100858.16;5014437;28;20061;-85
2021/03/07 04:02:05;;;;;;;4.75;2.17;;;;;;;4.10;52.43;100863.38;5014178;28;20065;-85
2021/03/07 04:04:33;;;;;;;7.35;2.38;;;;;;;4.08;52.85;100862.56;5014077;28;20555;-85
2021/03/07 04:06:59;;;;;;;3.25;2.25;;;;;;;4.06;52.46;100854.75;5014330;28;20050;-85
2021/03/07 04:09:26;;;;;;;4.18;1.92;;;;;;;4.06;52.15;100856.47;5015295;28;20050;-85
2021/03/07 04:11:53;;;;;;;5.30;1.67;;;;;;;4.03;52.28;100850.44;5015145;28;20053;-85
2021/03/07 04:14:20;;;;;;;5.80;2.47;;;;;;;4.02;52.74;100851.31;5015367;28;20057;-85
2021/03/07 04:16:49;;;;;;;5.78;1.83;;;;;;;3.99;53.12;100853.97;5015987;28;20388;-85
2021/03/07 04:19:17;;;;;;;3.45;1.42;;;;;;;3.98;52.07;100848.75;5015099;28;20057;-85
2021/03/07 04:21:45;;;;;;;6.32;1.65;;;;;;;3.97;52.29;100863.56;5015370;28;20423;-85
2021/03/07 04:24:12;;;;;;;4.55;1.80;;;;;;;3.95;52.21;100852.28;5015053;28;20054;-85
2021/03/07 04:26:38;;;;;;;1.80;1.60;;;;;;;3.95;52.25;100859.22;5016673;28;20060;-85
2021/03/07 04:29:05;;;;;;;2.40;1.40;;;;;;;3.93;52.44;100855.78;5034608;28;20053;-83
2021/03/07 04:31:33;;;;;;;4.78;1.67;;;;;;;3.91;52.48;100854.06;5032991;28;20048;-84
2021/03/07 04:34:03;;;;;;;3.88;1.30;;;;;;;3.90;53.05;100854.06;5034606;28;20049;-84
2021/03/07 04:36:29;;;;;;;6.07;1.65;;;;;;;3.92;52.56;100857.50;5034597;28;20046;-85
2021/03/07 04:38:56;;;;;;;3.10;1.30;;;;;;;3.90;52.94;100851.47;5033515;28;20046;-84
2021/03/07 04:41:23;;;;;;;6.65;1.75;;;;;;;3.90;52.75;100857.53;5033802;28;20053;-84
2021/03/07 04:43:52;;;;;;;3.88;1.40;;;;;;;3.89;52.87;100857.56;5019284;28;20053;-84
2021/03/07 04:46:20;;;;;;;4.50;1.77;;;;;;;3.89;52.75;100862.78;5015127;28;20054;-84
2021/03/07 04:48:47;;;;;;;7.10;1.92;;;;;;;3.87;52.70;100854.97;5015421;28;20060;-84
2021/03/07 04:51:14;;;;;;;4.45;1.77;;;;;;;3.88;53.00;100861.03;5014019;28;20084;-84
2021/03/07 04:53:40;;;;;;;6.82;1.90;;;;;;;3.87;52.49;100849.75;5013517;28;20050;-83
2021/03/07 04:56:06;;;;;;;6.65;1.70;;;;;;;3.88;52.89;100850.59;5012570;28;20042;-84
2021/03/07 04:58:36;;;;;;;3.28;1.40;;;;;;;3.86;53.43;100849.78;5014743;28;20042;-84
2021/03/07 05:01:03;;;;;;;5.65;1.70;;;;;;;3.87;52.51;100852.38;5031434;28;20046;-84
2021/03/07 05:03:31;;;;;;;4.20;1.50;;;;;;;3.86;52.80;100850.66;5013111;28;20060;-84
2021/03/07 05:05:57;;;;;;;2.72;1.40;;;;;;;3.86;52.92;100845.44;5014138;28;20076;-84
2021/03/07 05:08:25;;;;;;;4.90;1.45;;;;;;;3.84;53.02;100846.31;5013537;28;20050;-84
2021/03/07 05:10:52;;;;;;;2.65;1.50;;;;;;;3.83;52.91;100845.47;5012845;28;20050;-85
2021/03/07 05:13:18;;;;;;;3.67;1.45;;;;;;;3.83;52.97;100844.59;5013028;28;20061;-86
2021/03/07 05:15:44;;;;;;;1.70;1.10;;;;;;;3.82;52.80;100846.34;5028083;28;20048;-85
2021/03/07 05:18:10;;;;;;;5.97;1.30;;;;;;;3.83;53.00;100847.19;5032984;28;20049;-85
2021/03/07 05:20:37;;;;;;;3.95;1.95;;;;;;;3.83;53.46;100847.19;5033000;28;20053;-85
2021/03/07 05:23:03;;;;;;;4.22;1.42;;;;;;;3.85;53.63;100846.28;5032651;28;20050;-85
2021/03/07 05:25:29;;;;;;;3.75;1.55;;;;;;;3.87;53.46;100841.94;5032580;28;20049;-85
2021/03/07 05:27:56;;;;;;;5.10;1.65;;;;;;;3.90;53.16;100839.28;5033789;28;20045;-84
2021/03/07 05:30:22;;;;;;;3.58;1.58;;;;;;;3.92;53.29;100839.28;5031387;28;20049;-84
2021/03/07 05:32:48;;;;;;;3.20;1.52;;;;;;;3.95;53.58;100843.59;5033788;28;20057;-84
2021/03/07 05:35:15;;;;;;;6.38;2.00;;;;;;;3.97;53.77;100840.09;5033179;28;20574;-84
2021/03/07 05:37:41;;;;;;;3.47;1.73;;;;;;;4.01;53.41;100838.31;5032351;28;20049;-84
2021/03/07 05:40:08;;;;;;;3.80;1.77;;;;;;;4.04;53.69;100841.72;5033672;28;20049;-84
2021/03/07 05:42:36;;;;;;;4.25;1.63;;;;;;;4.08;53.76;100836.50;5033490;28;20049;-84
2021/03/07 05:45:21;;;;;;;2.88;1.55;;;;;;;4.12;53.58;100836.41;5031867;28;20054;-84
2021/03/07 05:47:47;;;;;;;3.67;1.75;;;;;;;4.17;53.40;100842.47;5014083;28;20049;-84
2021/03/07 05:50:13;;;;;;;3.72;1.70;;;;;;;4.20;53.57;100833.75;5013223;28;20046;-84
2021/03/07 05:52:40;;;;;;;5.15;1.65;;;;;;;4.23;53.60;100835.44;5013937;28;20180;-84
2021/03/07 05:55:07;;;;;;;3.17;1.60;;;;;;;4.27;53.56;100842.34;5012830;28;20050;-84
2021/03/07 05:57:35;;;;;;;5.35;1.98;;;;;;;4.29;53.99;100835.34;5013169;28;20050;-84
2021/03/07 06:00:04;;;;;;;5.97;1.80;;;;;;;4.30;54.21;100830.13;5013739;28;20061;-84
2021/03/07 06:02:30;;;;;;;5.63;1.88;;;;;;;4.34;53.80;100835.28;5021727;28;20049;-84
2021/03/07 06:04:56;;;;;;;9.73;2.05;;;;;;;4.37;53.59;100827.44;5017410;28;20048;-84
2021/03/07 06:07:32;;;;;;;3.83;2.00;;;;;;;4.40;53.70;100824.78;5035473;28;20081;-86
2021/03/07 06:10:29;;;;;;;6.80;2.40;;;;;;;4.40;54.80;100822.16;5036468;28;20045;-86
2021/03/07 06:13:10;;;;;;;3.58;1.80;;;;;;;4.44;54.78;100818.63;5029309;28;20057;-85
2021/03/07 06:16:09;;;;;;;5.53;1.67;;;;;;;4.47;54.53;100823.81;5037336;28;20049;-86
2021/03/07 06:18:42;;;;;;;13.88;4.68;;;;;;;4.50;54.16;100818.56;5026550;28;20053;-85
2021/03/07 06:21:27;;;;;;;8.15;2.17;;;;;;;4.51;54.66;100816.78;5016097;28;20125;-86
2021/03/07 06:23:55;;;;;;;9.40;2.20;;;;;;;4.55;53.64;100819.34;5015971;28;20057;-86
2021/03/07 06:26:21;;;;;;;4.75;1.83;;;;;;;4.59;53.31;100811.50;5015841;28;20042;-86
2021/03/07 06:29:08;;;;;;;7.00;1.88;;;;;;;4.57;54.19;100814.13;5017244;28;20054;-86
2021/03/07 06:31:35;;;;;;;4.43;2.10;;;;;;;4.64;53.26;100813.13;5016032;28;20058;-86
2021/03/07 06:34:02;;;;;;;4.88;2.20;;;;;;;4.66;53.28;100807.88;5018116;28;20052;-86
2021/03/07 06:36:29;;;;;;;4.50;2.35;;;;;;;4.68;53.63;100811.34;5016730;28;20046;-86
2021/03/07 06:39:05;;;;;;;4.45;2.67;;;;;;;4.69;54.25;100813.94;5015904;28;20057;-86
2021/03/07 06:41:32;;;;;;;3.90;2.22;;;;;;;4.74;53.46;100816.44;5016225;28;20053;-85
2021/03/07 06:44:13;;;;;;;4.75;2.70;;;;;;;4.74;53.98;100815.59;5015418;28;20046;-85
2021/03/07 06:46:41;;;;;;;7.57;2.30;;;;;;;4.78;53.21;100809.44;5016042;28;20049;-85
2021/03/07 06:49:20;;;;;;;4.60;2.72;;;;;;;4.80;53.43;100807.66;5017643;28;20076;-84
2021/03/07 06:51:46;;;;;;;8.65;2.40;;;;;;;4.82;53.02;100814.59;5037109;28;20053;-85
2021/03/07 06:54:13;;;;;;;7.35;2.78;;;;;;;4.83;53.35;100816.31;5036749;28;20045;-84
2021/03/07 06:56:46;;;;;;;3.42;2.03;;;;;;;4.83;53.99;100812.84;5035322;28;20484;-86
2021/03/07 06:59:15;;;;;;;3.72;2.20;;;;;;;4.87;53.53;100809.31;5036537;28;20060;-86
2021/03/07 07:01:48;;;;;;;4.85;3.08;;;;;;;4.90;53.51;100816.22;5035339;28;20402;-86
2021/03/07 07:04:16;;;;;;;6.68;2.60;;;;;;;4.92;53.47;100815.31;5029746;28;20081;-86
2021/03/07 07:06:43;;;;;;;6.28;3.25;;;;;;;4.95;53.52;100824.81;5017765;28;20069;-86
2021/03/07 07:09:10;;;;;;;6.35;2.75;;;;;;;4.98;53.81;100818.69;5035880;28;20057;-84
2021/03/07 07:11:47;;;;;;;6.28;3.00;;;;;;;5.00;54.38;100816.91;5035155;28;20054;-85
2021/03/07 07:14:27;;;;;;;7.68;3.30;;;;;;;5.04;53.73;100809.00;5036039;28;20050;-84
2021/03/07 07:16:54;;;;;;;6.07;2.75;;;;;;;5.09;53.46;100815.00;5035837;28;20042;-84
2021/03/07 07:19:21;;;;;;;5.65;2.90;;;;;;;5.14;53.56;100814.06;5014795;28;20100;-84
2021/03/07 07:21:48;;;;;;;4.80;2.80;;;;;;;5.17;53.23;100811.41;5016191;28;20057;-85
2021/03/07 07:24:15;;;;;;;6.35;2.75;;;;;;;5.19;53.70;100807.88;5014544;28;20052;-85
2021/03/07 07:26:44;;;;;;;6.50;3.25;;;;;;;5.20;53.58;100808.75;5016261;28;20054;-84
2021/03/07 07:29:11;;;;;;;4.15;2.80;;;;;;;5.22;53.42;100802.63;5014775;28;20054;-84
2021/03/07 07:31:56;;;;;;;4.72;2.75;;;;;;;5.21;54.22;100806.09;5015059;28;20045;-85
2021/03/07 07:34:28;;;;;;;4.30;2.60;;;;;;;5.26;53.90;100800.81;5017313;28;20058;-85
2021/03/07 07:37:04;;;;;;;8.85;2.95;;;;;;;5.28;54.31;100801.66;5015657;28;20046;-85
2021/03/07 07:39:39;;;;;;;6.53;2.80;;;;;;;5.32;54.28;100799.84;5015143;28;20057;-85
2021/03/07 07:42:25;;;;;;;6.05;2.60;;;;;;;5.35;54.35;100792.81;5014772;28;20061;-85
2021/03/07 07:44:52;;;;;;;5.65;2.80;;;;;;;5.43;53.60;100799.66;5015782;28;20053;-86
2021/03/07 07:47:20;;;;;;;6.25;2.83;;;;;;;5.46;53.42;100802.22;5014607;28;20054;-87
2021/03/07 07:49:52;;;;;;;8.00;3.20;;;;;;;5.47;53.93;100796.09;5016543;28;20045;-86
2021/03/07 07:52:25;;;;;;;8.38;2.80;;;;;;;5.50;53.85;100796.03;5015414;28;20535;-86
2021/03/07 07:54:58;;;;;;;2.90;2.20;;;;;;;5.53;53.55;100790.72;5014210;28;20444;-86
2021/03/07 07:57:47;;;;;;;4.15;2.10;;;;;;;5.54;53.89;100791.59;5015037;28;20042;-86
2021/03/07 08:00:20;;;;;;;3.35;1.85;;;;;;;5.60;53.66;100783.63;5015415;28;20493;-85
2021/03/07 08:02:46;;;;;;;6.93;3.03;;;;;;;5.65;53.19;100784.44;5014258;28;20061;-86
2021/03/07 08:05:22;;;;;;;7.32;3.15;;;;;;;5.67;53.97;100782.63;5015120;28;20488;-86
2021/03/07 08:08:01;;;;;;;5.65;3.00;;;;;;;5.71;53.97;100786.91;5018592;28;20121;-85
2021/03/07 08:10:39;;;;;;;3.15;2.50;;;;;;;5.78;53.42;100792.00;5034045;28;20053;-86
2021/03/07 08:13:09;;;;;;;6.05;2.85;;;;;;;5.85;53.29;100791.00;5035238;28;20064;-85
2021/03/07 08:15:52;;;;;;;6.22;2.50;;;;;;;5.85;53.58;100788.38;5033982;28;20437;-85
2021/03/07 08:18:20;;;;;;;5.15;2.35;;;;;;;5.93;52.78;100789.09;5034069;28;20064;-85
2021/03/07 08:20:47;;;;;;;4.88;2.35;;;;;;;5.96;52.68;100791.63;5034076;28;20052;-84
2021/03/07 08:23:15;;;;;;;6.30;2.55;;;;;;;5.99;53.02;100788.09;5033977;28;20053;-85
2021/03/07 08:25:50;;;;;;;4.32;2.33;;;;;;;5.99;52.69;100785.47;5035158;28;20045;-85
2021/03/07 08:28:29;;;;;;;3.75;2.33;;;;;;;6.02;52.65;100776.72;5033742;28;20074;-86
2021/03/07 08:31:02;;;;;;;8.70;2.75;;;;;;;6.06;52.30;100787.09;5033740;28;20130;-85
2021/03/07 08:33:34;;;;;;;7.60;2.67;;;;;;;6.07;52.55;100774.88;5033191;28;20492;-86
2021/03/07 08:36:07;;;;;;;;;;;;;;;6.12;52.42;100775.63;5033746;28;20056;-86
2021/03/07 08:38:33;;;;;;;3.03;1.75;;;;;;;6.21;51.74;100777.19;5013055;28;20347;-86
2021/03/07 08:41:00;;;;;;;5.03;2.60;;;;;;;6.22;52.16;100779.78;5014812;28;20050;-87
2021/03/07 08:43:26;;;;;;;10.85;4.07;;;;;;;6.26;52.05;100777.94;5013877;28;20054;-87
2021/03/07 08:45:59;;;;;;;5.90;2.42;;;;;;;6.27;51.94;100787.50;5013528;28;20073;-86
2021/03/07 08:48:25;;;;;;;5.40;2.67;;;;;;;6.32;51.72;100784.81;5015001;28;20382;-86
2021/03/07 08:50:52;;;;;;;6.32;2.80;;;;;;;6.34;51.82;100778.66;5015112;28;20052;-85
2021/03/07 08:53:28;;;;;;;5.40;2.55;;;;;;;6.34;51.53;100773.41;5015574;28;20563;-85
2021/03/07 08:55:54;;;;;;;3.22;2.25;;;;;;;6.39;51.16;100768.06;5013482;28;20050;-85
2021/03/07 08:58:22;;;;;;;3.10;2.20;;;;;;;6.41;51.41;100765.41;5013565;28;20082;-85
2021/03/07 09:00:51;;;;;;;2.80;2.17;;;;;;;6.42;51.20;100762.75;5015030;28;20054;-85
2021/03/07 09:03:20;;;;;;;5.22;2.50;;;;;;;6.45;51.19;100769.69;5012844;28;20050;-85
2021/03/07 09:05:47;;;;;;;7.28;2.42;;;;;;;6.48;51.11;100774.84;5013236;28;20402;-85
2021/03/07 09:08:15;;;;;;;3.30;2.08;;;;;;;6.48;50.92;100770.50;5013733;28;20406;-85
2021/03/07 09:10:44;;;;;;;4.40;2.00;;;;;;;6.50;50.92;100773.03;5015871;28;20128;-85
2021/03/07 09:13:15;;;;;;;4.68;2.20;;;;;;;6.52;51.17;100766.03;5032660;28;20056;-85
2021/03/07 09:16:04;;;;;;;5.55;2.13;;;;;;;6.51;51.17;100762.53;5032677;28;20049;-85
2021/03/07 09:18:35;;;;;;;3.95;2.20;;;;;;;6.58;50.63;100763.25;5033746;28;20061;-85
2021/03/07 09:21:16;;;;;;;3.25;2.00;;;;;;;6.59;50.39;100766.75;5033572;28;20099;-85
2021/03/07 09:23:45;;;;;;;4.07;2.35;;;;;;;6.58;50.43;100763.25;5028116;28;20061;-83
2021/03/07 09:26:12;;;;;;;4.28;2.17;;;;;;;6.59;50.67;100754.53;5013563;28;20050;-85
2021/03/07 09:28:44;;;;;;;4.63;2.60;;;;;;;6.58;50.16;100760.63;5014312;28;20394;-85
2021/03/07 09:31:15;;;;;;;2.83;2.25;;;;;;;6.56;50.07;100762.44;5013116;28;20519;-85
2021/03/07 09:33:52;;;;;;;3.53;2.20;;;;;;;6.54;50.40;100766.84;5014057;28;20049;-83
2021/03/07 09:36:21;;;;;;;4.00;2.28;;;;;;;6.55;50.66;100759.88;5012546;28;20520;-85
2021/03/07 09:39:01;;;;;;;5.88;2.10;;;;;;;6.52;50.63;100760.81;5015296;28;20050;-84
2021/03/07 09:41:38;;;;;;;3.47;2.05;;;;;;;6.53;50.66;100762.50;5033514;28;20053;-85
2021/03/07 09:44:07;;;;;;;6.47;2.20;;;;;;;6.54;50.21;100756.38;5032691;28;20060;-85
2021/03/07 09:46:34;;;;;;;4.70;2.33;;;;;;;6.57;50.15;100758.06;5033806;28;20053;-85
2021/03/07 09:49:07;;;;;;;7.40;2.60;;;;;;;6.55;50.21;100755.50;5033954;28;20060;-85
2021/03/07 09:51:36;;;;;;;4.00;2.50;;;;;;;6.58;50.44;100752.78;5032697;28;20061;-85
2021/03/07 09:54:04;;;;;;;4.53;2.60;;;;;;;6.60;50.61;100743.16;5032553;28;20045;-85
2021/03/07 09:56:32;;;;;;;4.95;2.58;;;;;;;6.63;50.22;100750.94;5030100;28;20049;-85
2021/03/07 09:59:25;;;;;;;5.50;3.08;;;;;;;6.64;50.28;100752.66;5032255;28;20054;-85
2021/03/07 10:01:52;;;;;;;4.97;2.27;;;;;;;6.71;50.37;100744.66;5033578;28;20046;-85
2021/03/07 10:04:44;;;;;;;4.50;2.58;;;;;;;6.70;50.18;100750.78;5032722;28;20515;-85
2021/03/07 10:07:10;;;;;;;2.95;2.30;;;;;;;6.77;50.15;100747.13;5032679;28;20056;-84
2021/03/07 10:09:56;;;;;;;3.40;2.38;;;;;;;6.76;50.40;100742.75;5032363;28;20057;-85
2021/03/07 10:12:22;;;;;;;4.45;2.25;;;;;;;6.83;50.07;100743.47;5030587;28;20057;-85
2021/03/07 10:14:53;;;;;;;4.93;2.30;;;;;;;6.83;49.78;100743.47;5031129;28;20045;-86
2021/03/07 10:17:19;;;;;;;5.05;2.35;;;;;;;6.86;49.87;100744.28;5032198;28;20053;-86
2021/03/07 10:19:46;;;;;;;4.07;2.50;;;;;;;6.87;49.96;100743.38;5032276;28;20478;-85
2021/03/07 10:22:12;;;;;;;4.03;2.50;;;;;;;6.89;49.91;100738.09;5032157;28;20061;-85
2021/03/07 10:24:39;;;;;;;4.22;2.65;;;;;;;6.90;49.92;100735.44;5032031;28;20443;-85
2021/03/07 10:27:08;;;;;;;2.28;1.90;;;;;;;6.92;49.68;100727.56;5031800;28;20048;-85
2021/03/07 10:29:37;;;;;;;4.03;2.03;;;;;;;6.94;49.73;100727.50;5032211;28;20060;-85
2021/03/07 10:32:09;;;;;;;6.47;2.58;;;;;;;6.98;49.67;100726.50;5031949;28;20450;-85
2021/03/07 10:34:41;;;;;;;3.38;1.98;;;;;;;6.98;49.40;100724.75;5032979;28;20108;-86
2021/03/07 10:37:10;;;;;;;3.47;2.20;;;;;;;7.01;49.51;100721.19;5031852;28;20104;-86
2021/03/07 10:39:36;;;;;;;2.05;1.77;;;;;;;7.04;49.28;100721.97;5031929;28;20049;-86
2021/03/07 10:42:05;;;;;;;3.03;1.95;;;;;;;7.05;49.32;100717.59;5030154;28;20136;-86
2021/03/07 10:44:32;;;;;;;3.53;2.28;;;;;;;7.07;49.33;100720.19;5013248;28;20053;-86
2021/03/07 10:47:16;;;;;;;3.00;1.90;;;;;;;7.03;49.16;100728.13;5013371;28;20046;-85
2021/03/07 10:49:45;;;;;;;2.97;1.95;;;;;;;7.07;49.20;100726.28;5012193;28;20140;-86
2021/03/07 10:52:12;;;;;;;3.50;1.80;;;;;;;7.10;49.14;100726.19;5013770;28;20060;-86
2021/03/07 10:54:39;;;;;;;4.28;2.05;;;;;;;7.11;48.89;100716.59;5014076;28;20053;-86
2021/03/07 10:57:10;;;;;;;2.75;1.70;;;;;;;7.13;48.79;100714.78;5015309;28;20052;-85
2021/03/07 10:59:37;;;;;;;2.58;1.63;;;;;;;7.18;48.71;100715.53;5016888;28;20515;-85
2021/03/07 11:02:09;;;;;;;2.63;1.92;;;;;;;7.20;49.04;100711.09;5016374;28;20088;-85
2021/03/07 11:04:35;;;;;;;5.45;1.90;;;;;;;7.23;49.02;100715.38;5017263;28;20129;-86
2021/03/07 11:07:02;;;;;;;5.57;1.95;;;;;;;7.26;48.76;100710.06;5015055;28;20046;-86
2021/03/07 11:09:28;;;;;;;3.97;1.90;;;;;;;7.27;48.88;100706.53;5015884;28;20382;-85
2021/03/07 11:11:55;;;;;;;4.78;1.83;;;;;;;7.31;48.87;100702.94;5016583;28;20493;-85
2021/03/07 11:14:21;;;;;;;4.40;2.17;;;;;;;7.34;49.02;100702.88;5014941;28;20065;-85
2021/03/07 11:16:47;;;;;;;3.90;1.90;;;;;;;7.35;48.43;100701.09;5016177;28;20125;-85
2021/03/07 11:19:18;;;;;;;3.55;1.58;;;;;;;7.38;48.34;100708.88;5034293;28;20049;-85
2021/03/07 11:21:44;;;;;;;4.95;1.67;;;;;;;7.40;48.57;100707.91;5035029;28;20053;-85
2021/03/07 11:24:11;;;;;;;2.70;1.35;;;;;;;7.45;48.48;100705.19;5034277;28;20053;-85
2021/03/07 11:26:37;;;;;;;1.23;1.13;;;;;;;7.49;48.35;100705.94;5036025;28;20053;-85
2021/03/07 11:29:03;;;;;;;2.10;1.27;;;;;;;7.53;48.31;100711.06;5035994;28;20057;-86
2021/03/07 11:31:29;;;;;;;3.15;1.38;;;;;;;7.57;48.12;100706.56;5035752;28;20045;-86
2021/03/07 11:33:55;;;;;;;2.20;0.95;;;;;;;7.60;48.03;100703.00;5027152;28;20069;-86
2021/03/07 11:36:22;;;;;;;3.13;1.15;;;;;;;7.63;47.84;100700.31;5014651;28;20050;-86
2021/03/07 11:38:48;;;;;;;4.28;1.45;;;;;;;7.65;48.03;100701.97;5017296;28;20129;-86
2021/03/07 11:41:14;;;;;;;2.58;1.38;;;;;;;7.69;48.05;100697.50;5014873;28;20509;-85
2021/03/07 11:43:40;;;;;;;2.47;1.35;;;;;;;7.73;47.87;100703.50;5014646;28;20045;-84
2021/03/07 11:46:06;;;;;;;2.70;1.50;;;;;;;7.77;47.82;100703.38;5015949;28;20107;-85